Terminal Aerodrome Forecast
Issued by NWS

Home | Current Version | Previous Version | Text Only | Print | Product List | Glossary On
Versions: 1 2 3 4 5 6 7 8 9 10 11 12 13 14 15 16 17 18 19 20
000
FTUS43 KDLH 021303 AAA
TAFBRD
TAF AMD
KBRD 021303Z 0213/0312 00000KT 2SM BR SKC
     FM021400 14008KT P6SM SKC
     FM030100 14005KT P6SM SCT035
     FM030700 12003KT 3SM BR SCT020 BKN025=

USA.gov is the U.S. government's official web portal to all federal, state and local government web resources and services.